Time;durP1;ratioP1;P1;durP2;ratioP2;P2;SDS_P1;SDS_P2;PMS_P1;PMS_P2;Temp;Humidity;BMP_temperature;BMP_pressure;BME280_temperature;BME280_humidity;BME280_pressure;Samples;Min_cycle;Max_cycle;Signal;HPM_P1;HPM_P2
2023/10/09 00:00:55;;;;;;;11.90;4.75;;;;;;;15.47;63.73;97305.84;4977241;28;20054;-81
2023/10/09 00:03:23;;;;;;;12.93;4.90;;;;;;;15.44;63.56;97306.25;4977447;28;20054;-81
2023/10/09 00:05:53;;;;;;;9.23;4.60;;;;;;;15.40;63.63;97305.81;4976842;28;20101;-81
2023/10/09 00:08:22;;;;;;;12.05;4.25;;;;;;;15.40;63.68;97315.53;4977558;28;20105;-81
2023/10/09 00:10:52;;;;;;;13.68;4.75;;;;;;;15.40;63.78;97310.28;4976918;28;20047;-83
2023/10/09 00:13:27;;;;;;;12.00;4.57;;;;;;;15.42;63.80;97309.06;4977159;28;20057;-81
2023/10/09 00:16:01;;;;;;;11.15;4.45;;;;;;;15.45;63.39;97294.72;4976853;28;20506;-81
2023/10/09 00:18:34;;;;;;;16.50;4.72;;;;;;;15.46;63.61;97301.63;4976983;28;20047;-80
2023/10/09 00:21:11;;;;;;;14.93;4.60;;;;;;;15.45;63.55;97297.34;4977954;28;20054;-81
2023/10/09 00:23:40;;;;;;;12.82;3.80;;;;;;;15.43;63.43;97294.09;4976673;28;20470;-81
2023/10/09 00:26:10;;;;;;;10.13;4.05;;;;;;;15.40;63.42;97294.50;4976394;28;20090;-81
2023/10/09 00:28:42;;;;;;;12.98;4.28;;;;;;;15.37;63.69;97295.72;4976683;28;20055;-81
2023/10/09 00:31:14;;;;;;;12.07;5.60;;;;;;;15.37;63.25;97293.09;4976606;28;20134;-81
2023/10/09 00:33:43;;;;;;;;;;;;;;;15.36;63.44;97288.81;4977277;28;20073;-81
2023/10/09 00:36:14;;;;;;;12.65;4.18;;;;;;;15.35;63.36;97291.63;4975860;28;19922;-81
2023/10/09 00:38:45;;;;;;;9.48;4.20;;;;;;;15.36;63.18;97288.00;4976726;28;20051;-83
2023/10/09 00:41:19;;;;;;;12.88;4.63;;;;;;;15.37;63.33;97281.72;4976859;28;20050;-81
2023/10/09 00:43:49;;;;;;;12.23;4.90;;;;;;;15.38;63.14;97283.38;4976366;28;20574;-81
2023/10/09 00:46:24;;;;;;;12.63;4.20;;;;;;;15.39;63.38;97288.44;4976307;28;20065;-81
2023/10/09 00:48:55;;;;;;;12.13;3.92;;;;;;;15.42;62.94;97281.97;4975989;28;20059;-81
2023/10/09 00:51:24;;;;;;;18.58;5.93;;;;;;;15.43;63.10;97278.31;4976135;28;20502;-81
2023/10/09 00:53:54;;;;;;;9.25;4.03;;;;;;;15.44;62.95;97272.09;4976260;28;20050;-81
2023/10/09 00:56:37;;;;;;;14.18;4.45;;;;;;;15.44;62.91;97272.88;4976654;28;20054;-81
2023/10/09 00:59:09;;;;;;;12.73;4.35;;;;;;;15.47;62.96;97268.25;4976290;28;20708;-81
2023/10/09 01:01:41;;;;;;;12.03;4.70;;;;;;;15.46;62.87;97267.44;4976060;28;20499;-81
2023/10/09 01:04:11;;;;;;;14.18;4.72;;;;;;;15.42;62.85;97263.56;4975912;28;20138;-81
2023/10/09 01:06:44;;;;;;;12.50;4.57;;;;;;;15.36;63.14;97256.47;4975973;28;20082;-81
2023/10/09 01:09:14;;;;;;;12.82;4.57;;;;;;;15.35;63.02;97252.19;4976061;28;20146;-81
2023/10/09 01:11:49;;;;;;;13.02;4.40;;;;;;;15.36;63.00;97251.22;4975855;28;20055;-81
2023/10/09 01:14:21;;;;;;;12.32;4.25;;;;;;;15.35;63.04;97246.94;4975855;28;20111;-81
2023/10/09 01:16:53;;;;;;;8.77;3.88;;;;;;;15.34;63.06;97242.72;4975866;28;20055;-81
2023/10/09 01:19:23;;;;;;;11.80;4.85;;;;;;;15.31;62.85;97248.38;4975931;28;20133;-81
2023/10/09 01:21:51;;;;;;;12.25;4.05;;;;;;;15.23;63.03;97236.19;4975608;28;20078;-81
2023/10/09 01:24:22;;;;;;;11.85;4.10;;;;;;;15.19;63.17;97241.00;4975189;28;20614;-81
2023/10/09 01:26:54;;;;;;;17.17;4.55;;;;;;;15.18;63.27;97244.66;4975492;28;20150;-81
2023/10/09 01:29:23;;;;;;;9.98;4.25;;;;;;;15.21;63.15;97249.50;4975383;28;20506;-80
2023/10/09 01:31:54;;;;;;;15.38;4.50;;;;;;;15.22;62.91;97230.13;4975188;28;20137;-81
2023/10/09 01:34:38;;;;;;;10.20;4.78;;;;;;;15.25;63.08;97234.97;4975217;28;20054;-81
2023/10/09 01:37:11;;;;;;;16.42;5.05;;;;;;;15.27;62.84;97236.63;4975562;28;20511;-81
2023/10/09 01:39:42;;;;;;;13.45;4.93;;;;;;;15.22;62.74;97238.00;4975149;28;20082;-81
2023/10/09 01:42:10;;;;;;;12.23;4.38;;;;;;;15.21;62.84;97231.13;4975241;28;20057;-81
2023/10/09 01:44:43;;;;;;;14.13;4.43;;;;;;;15.22;63.13;97234.59;4974817;28;20065;-81
2023/10/09 01:47:14;;;;;;;11.38;4.15;;;;;;;15.25;62.88;97234.97;4974178;28;20057;-81
2023/10/09 01:49:43;;;;;;;14.07;4.80;;;;;;;15.25;62.94;97234.97;4975105;28;20475;-80
2023/10/09 01:52:15;;;;;;;13.00;4.60;;;;;;;15.25;62.96;97224.47;4974997;28;20485;-81
2023/10/09 01:54:48;;;;;;;15.15;5.30;;;;;;;15.25;62.88;97227.09;4974674;28;20058;-81
2023/10/09 01:57:22;;;;;;;13.13;3.75;;;;;;;15.25;63.06;97221.03;4975133;28;20051;-81
2023/10/09 01:59:53;;;;;;;9.88;4.53;;;;;;;15.25;63.09;97221.03;4975502;28;20050;-81
2023/10/09 02:02:33;;;;;;;13.07;4.78;;;;;;;15.26;62.96;97212.13;4974932;28;20051;-81
2023/10/09 02:05:10;;;;;;;11.02;4.00;;;;;;;15.28;63.18;97219.81;4974454;28;20059;-81
2023/10/09 02:07:44;;;;;;;15.02;4.38;;;;;;;15.30;63.01;97209.94;4995005;28;20062;-81
2023/10/09 02:10:25;;;;;;;10.68;4.72;;;;;;;15.32;63.19;97218.44;4994047;28;20047;-81
2023/10/09 02:12:57;;;;;;;12.30;4.53;;;;;;;15.32;63.11;97203.47;4989658;28;20070;-81
2023/10/09 02:18:26;;;;;;;10.50;4.32;;;;;;;15.32;62.87;97208.72;5092255;27;20362;-80
2023/10/09 02:21:13;;;;;;;12.20;4.97;;;;;;;15.34;63.30;97203.28;5090973;28;20048;-80
2023/10/09 02:23:46;;;;;;;16.45;5.30;;;;;;;15.32;62.80;97206.09;5091055;28;20530;-79
2023/10/09 02:26:19;;;;;;;15.65;4.75;;;;;;;15.29;63.13;97209.13;5090973;28;20123;-80
2023/10/09 02:28:58;;;;;;;15.05;5.13;;;;;;;15.29;63.15;97216.22;5091152;28;20048;-80
2023/10/09 02:58:21;;;;;;;16.30;4.68;;;;;;;15.29;63.04;97190.72;5624311;23;20065;-77
2023/10/09 03:00:48;;;;;;;21.48;6.00;;;;;;;15.32;62.59;97186.88;5037781;28;20407;-78
2023/10/09 03:03:18;;;;;;;22.15;6.15;;;;;;;15.30;62.68;97191.53;5049298;28;20515;-78
2023/10/09 03:05:46;;;;;;;22.23;5.85;;;;;;;15.25;62.56;97185.03;5049386;28;20077;-78
2023/10/09 03:08:16;;;;;;;21.75;5.88;;;;;;;15.25;62.21;97181.63;5049136;28;20077;-77
2023/10/09 03:10:44;;;;;;;18.90;4.78;;;;;;;15.25;62.50;97187.66;5058690;23;20141;-80
2023/10/09 03:13:11;;;;;;;26.55;5.72;;;;;;;15.24;62.66;97185.25;5028980;28;20145;-81
2023/10/09 03:15:43;;;;;;;18.65;5.45;;;;;;;15.22;62.64;97182.81;5029302;28;20084;-80
2023/10/09 03:18:13;;;;;;;22.77;5.57;;;;;;;15.22;62.51;97177.56;5029215;28;20585;-80
2023/10/09 03:20:44;;;;;;;18.65;4.68;;;;;;;15.25;62.10;97177.16;5039292;28;20080;-81
2023/10/09 03:23:14;;;;;;;21.85;6.32;;;;;;;15.28;61.78;97175.94;5049028;28;20088;-80
2023/10/09 03:25:45;;;;;;;23.05;4.53;;;;;;;15.30;61.52;97173.13;5048664;28;20053;-81
2023/10/09 03:28:15;;;;;;;16.70;5.18;;;;;;;15.35;61.56;97173.34;5051766;28;20049;-81
2023/10/09 03:30:46;;;;;;;16.85;5.60;;;;;;;15.39;61.72;97169.31;5050704;28;20049;-81
2023/10/09 03:33:15;;;;;;;20.58;5.35;;;;;;;15.40;61.19;97169.13;5049464;28;20053;-81
2023/10/09 03:35:43;;;;;;;19.13;5.25;;;;;;;15.42;61.34;97164.47;5037476;28;20053;-80
2023/10/09 03:38:17;;;;;;;21.50;6.05;;;;;;;15.43;61.14;97165.28;5036584;28;20060;-81
2023/10/09 03:40:47;;;;;;;16.90;5.55;;;;;;;15.40;61.17;97163.88;5036503;28;20481;-81
2023/10/09 03:43:16;;;;;;;27.92;6.00;;;;;;;15.42;60.93;97161.03;5035785;28;20057;-80
2023/10/09 03:45:52;;;;;;;20.73;5.90;;;;;;;15.43;60.98;97163.47;5035521;28;20114;-81
2023/10/09 03:48:25;;;;;;;24.65;5.45;;;;;;;15.44;60.78;97161.66;5035437;28;20081;-81
2023/10/09 03:51:08;;;;;;;21.02;5.85;;;;;;;15.45;60.86;97165.91;5035545;28;20103;-81
2023/10/09 03:53:37;;;;;;;21.75;6.22;;;;;;;15.46;60.46;97154.38;5035286;28;20056;-81
2023/10/09 03:56:11;;;;;;;17.40;5.18;;;;;;;15.49;60.34;97155.81;5035213;28;20050;-81
2023/10/09 03:58:42;;;;;;;20.75;5.60;;;;;;;15.50;60.37;97154.78;5035162;28;20096;-80
2023/10/09 04:01:22;;;;;;;21.40;5.63;;;;;;;15.49;60.37;97161.88;5035098;28;20057;-80
2023/10/09 04:03:54;;;;;;;20.88;5.07;;;;;;;15.48;60.60;97155.00;5035664;28;20053;-80
2023/10/09 04:06:22;;;;;;;23.55;5.70;;;;;;;15.50;60.75;97163.47;5035299;28;20060;-81
2023/10/09 04:08:51;;;;;;;14.15;4.72;;;;;;;15.52;60.56;97161.47;5034943;28;20136;-81
2023/10/09 04:11:22;;;;;;;11.80;4.32;;;;;;;15.53;60.94;97173.59;5034940;28;20052;-83
2023/10/09 04:13:52;;;;;;;19.90;5.72;;;;;;;15.53;60.93;97168.34;5035185;28;20057;-81
2023/10/09 04:16:51;;;;;;;17.88;5.18;;;;;;;15.53;61.61;97168.34;5034631;28;20132;-81
2023/10/09 04:19:21;;;;;;;20.00;5.63;;;;;;;15.51;62.05;97175.63;5034625;28;20045;-81
2023/10/09 04:21:48;;;;;;;20.90;5.25;;;;;;;15.52;61.92;97176.44;5036143;28;20166;-81
2023/10/09 04:24:25;;;;;;;15.63;5.40;;;;;;;15.50;61.74;97174.00;5036052;28;20045;-80
2023/10/09 04:26:58;;;;;;;10.82;4.88;;;;;;;15.50;61.99;97167.94;5034387;28;20053;-80
2023/10/09 04:29:37;;;;;;;14.75;4.75;;;;;;;15.48;62.23;97170.78;5034741;28;20065;-80
2023/10/09 04:32:15;;;;;;;20.50;6.35;;;;;;;15.43;62.67;97170.53;5034526;28;20045;-80
2023/10/09 04:34:49;;;;;;;15.18;5.03;;;;;;;15.36;62.61;97164.47;5034677;28;20130;-81
2023/10/09 04:37:36;;;;;;;17.67;5.30;;;;;;;15.31;62.73;97170.31;5034278;28;20143;-80
2023/10/09 04:40:12;;;;;;;15.35;5.70;;;;;;;15.30;62.56;97176.56;5033108;28;20057;-80
2023/10/09 04:42:46;;;;;;;16.13;5.10;;;;;;;15.32;62.87;97171.13;5033980;28;20046;-80
2023/10/09 04:45:25;;;;;;;19.60;5.20;;;;;;;15.34;62.61;97185.69;5033643;28;20049;-80
2023/10/09 04:48:09;;;;;;;20.85;5.45;;;;;;;15.31;62.83;97180.03;5034231;28;20045;-80
2023/10/09 04:50:45;;;;;;;24.02;5.90;;;;;;;15.29;62.88;97179.41;5033737;28;20532;-80
2023/10/09 04:53:25;;;;;;;22.52;6.15;;;;;;;15.25;63.54;97177.16;5033806;28;20049;-81
2023/10/09 04:55:54;;;;;;;29.33;6.97;;;;;;;15.23;63.16;97183.63;5034096;28;20053;-80
2023/10/09 04:58:26;;;;;;;24.63;7.30;;;;;;;15.18;63.05;97176.34;5034067;28;20045;-80
2023/10/09 05:01:04;;;;;;;17.75;6.18;;;;;;;15.14;63.42;97175.09;5033766;28;20049;-80
2023/10/09 05:03:45;;;;;;;16.98;5.72;;;;;;;15.09;63.18;97172.25;5033583;28;20148;-81
2023/10/09 05:06:42;;;;;;;20.45;5.90;;;;;;;15.05;63.79;97176.28;5033231;28;20049;-81
2023/10/09 05:09:13;;;;;;;20.55;5.65;;;;;;;15.05;63.52;97184.16;5033929;28;20046;-80
2023/10/09 05:11:54;;;;;;;20.67;6.28;;;;;;;15.02;63.03;97181.91;5033641;28;20132;-81
2023/10/09 05:14:27;;;;;;;18.33;5.32;;;;;;;14.96;63.21;97180.91;5033349;28;20107;-80
2023/10/09 05:16:55;;;;;;;29.15;6.25;;;;;;;14.91;62.93;97187.72;5034018;28;20114;-80
2023/10/09 05:19:33;;;;;;;16.17;6.07;;;;;;;14.86;62.92;97184.88;5033570;28;20045;-81
2023/10/09 05:22:07;;;;;;;22.50;7.03;;;;;;;14.83;63.02;97184.25;5033642;28;20049;-80
2023/10/09 05:24:44;;;;;;;20.35;6.22;;;;;;;14.81;62.92;97186.28;5033378;28;20073;-80
2023/10/09 05:27:45;;;;;;;22.85;5.78;;;;;;;14.79;62.94;97182.22;5033259;28;20533;-80
2023/10/09 05:30:25;;;;;;;24.48;6.75;;;;;;;14.75;62.43;97184.41;5032924;28;20145;-80
2023/10/09 05:32:59;;;;;;;18.63;6.18;;;;;;;14.74;62.39;97189.88;5033335;28;20483;-80
2023/10/09 05:35:39;;;;;;;24.17;6.65;;;;;;;14.73;62.15;97183.00;5033136;28;20571;-80
2023/10/09 05:38:23;;;;;;;30.45;6.28;;;;;;;14.71;62.25;97185.81;5034232;28;20049;-81
2023/10/09 05:40:54;;;;;;;27.50;7.25;;;;;;;14.73;61.82;97193.50;5033179;28;20076;-80
2023/10/09 05:46:15;;;;;;;19.23;6.32;;;;;;;14.77;61.77;97190.28;5033063;28;20136;-80
2023/10/09 05:48:54;;;;;;;15.82;5.50;;;;;;;14.80;61.77;97189.91;5033608;28;20049;-80
2023/10/09 05:54:23;;;;;;;20.70;7.43;;;;;;;14.77;61.38;97192.91;5032574;28;20052;-80
2023/10/09 06:05:42;;;;;;;18.38;5.40;;;;;;;14.78;61.53;97196.34;5025451;28;20075;-79
2023/10/09 06:08:12;;;;;;;25.02;6.55;;;;;;;14.81;61.55;97195.97;5042157;28;20053;-80
2023/10/09 06:10:41;;;;;;;26.52;6.15;;;;;;;14.82;61.69;97189.69;5036001;28;20049;-81
2023/10/09 06:13:37;;;;;;;24.38;6.10;;;;;;;14.83;61.68;97200.03;5052986;28;20065;-80
2023/10/09 06:16:19;;;;;;;27.50;6.88;;;;;;;14.84;61.93;97195.56;5055364;28;20046;-79
2023/10/09 06:19:07;;;;;;;20.98;5.65;;;;;;;14.87;61.63;97197.81;5052642;28;20067;-80
2023/10/09 06:24:41;;;;;;;23.00;5.18;;;;;;;14.89;61.04;97201.06;5011361;28;20107;-81
2023/10/09 06:27:26;;;;;;;18.90;6.90;;;;;;;14.90;61.08;97194.00;5033825;28;20565;-79
2023/10/09 06:30:13;;;;;;;16.55;5.30;;;;;;;14.92;60.98;97197.25;5033687;28;20081;-80
2023/10/09 06:32:50;;;;;;;19.73;5.30;;;;;;;14.94;60.96;97192.59;5034372;28;20049;-81
2023/10/09 06:35:18;;;;;;;23.02;5.38;;;;;;;14.97;60.71;97194.84;5034338;28;20572;-81
2023/10/09 06:43:27;;;;;;;17.73;5.78;;;;;;;15.02;60.74;97192.41;5048056;28;20050;-80
2023/10/09 06:46:17;;;;;;;19.60;5.57;;;;;;;15.05;60.69;97202.56;5039947;28;20163;-81
2023/10/09 06:48:46;;;;;;;18.63;6.13;;;;;;;15.08;60.64;97196.91;5035457;28;20084;-81
2023/10/09 06:51:40;;;;;;;24.98;6.88;;;;;;;15.11;60.39;97200.94;5034426;28;20505;-81
2023/10/09 06:54:06;;;;;;;21.13;5.28;;;;;;;15.13;60.53;97196.31;5033751;28;20049;-80
2023/10/09 06:59:41;;;;;;;19.77;5.53;;;;;;;15.21;60.26;97186.44;5022234;28;20052;-81
2023/10/09 07:02:26;;;;;;;;;;;;;;;15.26;60.50;97188.47;5032892;28;20049;-81
2023/10/09 07:04:55;;;;;;;23.73;6.15;;;;;;;15.28;60.27;97196.19;5035416;28;19924;-80
2023/10/09 07:07:24;;;;;;;27.08;6.57;;;;;;;15.31;60.06;97190.53;5035963;28;20513;-81
2023/10/09 07:12:44;;;;;;;21.92;5.55;;;;;;;15.39;60.27;97203.50;5036233;28;20076;-80
2023/10/09 07:18:18;;;;;;;18.48;6.68;;;;;;;15.49;60.04;97197.88;5036071;28;20085;-80
2023/10/09 07:20:58;;;;;;;21.50;5.10;;;;;;;15.53;60.26;97202.53;5035733;28;20547;-81
2023/10/09 07:23:32;;;;;;;23.48;5.22;;;;;;;15.57;60.43;97211.66;5035750;28;20050;-80
2023/10/09 07:26:25;;;;;;;17.98;4.97;;;;;;;15.62;60.56;97209.22;5035466;28;20432;-80
2023/10/09 07:29:15;;;;;;;25.23;5.78;;;;;;;15.66;60.42;97210.44;5036656;28;20405;-80
2023/10/09 07:31:45;;;;;;;20.02;5.78;;;;;;;15.73;60.67;97220.22;5037435;28;20049;-80
2023/10/09 07:34:52;;;;;;;15.80;4.63;;;;;;;15.77;60.15;97208.28;5049959;28;20049;-81
2023/10/09 07:37:22;;;;;;;24.30;4.47;;;;;;;15.83;58.16;97210.09;5051340;28;20061;-80
2023/10/09 07:39:57;;;;;;;21.17;5.72;;;;;;;15.89;58.11;97217.19;5043979;28;20504;-80
2023/10/09 07:42:43;;;;;;;16.20;4.80;;;;;;;15.97;57.71;97210.94;5036864;28;20050;-81
2023/10/09 07:46:08;;;;;;;19.13;5.35;;;;;;;16.03;57.65;97212.78;5036771;28;20053;-80
2023/10/09 07:48:04;;;;;;;19.77;4.60;;;;;;;16.11;57.66;97209.13;5035663;28;20103;-81
2023/10/09 07:50:48;;;;;;;19.23;4.53;;;;;;;16.17;56.57;97210.97;5035386;28;20515;-80
2023/10/09 07:53:18;;;;;;;20.30;5.43;;;;;;;16.24;57.30;97217.03;5035292;28;20302;-81
2023/10/09 07:55:54;;;;;;;21.00;6.20;;;;;;;16.30;57.60;97221.50;5035684;28;20433;-81
2023/10/09 07:58:24;;;;;;;12.05;4.38;;;;;;;16.36;57.63;97219.88;5035063;28;20532;-81
2023/10/09 08:01:15;;;;;;;14.77;4.82;;;;;;;16.43;58.15;97221.47;5035210;28;20053;-80
2023/10/09 08:03:45;;;;;;;12.70;4.68;;;;;;;16.50;58.05;97224.09;5035792;28;20053;-80
2023/10/09 08:09:46;;;;;;;19.70;6.90;;;;;;;16.59;59.60;97235.25;4993696;28;20054;-81
2023/10/09 08:12:38;;;;;;;30.40;7.32;;;;;;;16.62;59.69;97245.38;4994097;28;20109;-80
2023/10/09 08:15:21;;;;;;;19.73;6.43;;;;;;;16.67;59.35;97237.69;5026541;28;20101;-80
2023/10/09 08:17:53;;;;;;;18.42;5.68;;;;;;;16.71;59.25;97244.16;5034861;28;20054;-81
2023/10/09 08:20:24;;;;;;;22.42;6.85;;;;;;;16.75;59.43;97240.09;5035363;28;20053;-80
2023/10/09 08:22:55;;;;;;;17.63;5.72;;;;;;;16.80;59.52;97242.16;5035127;28;20077;-80
2023/10/09 08:25:31;;;;;;;12.73;5.28;;;;;;;16.84;59.14;97244.16;5035080;28;20057;-81
2023/10/09 08:30:49;;;;;;;18.52;6.07;;;;;;;16.96;59.36;97235.63;5018216;28;20057;-80
2023/10/09 08:36:22;;;;;;;20.17;6.18;;;;;;;17.06;59.20;97236.81;4973970;28;20054;-81
2023/10/09 08:38:52;;;;;;;25.40;6.40;;;;;;;17.12;59.05;97244.91;5023636;28;20513;-81
2023/10/09 08:41:21;;;;;;;19.73;6.30;;;;;;;17.19;58.90;97245.72;5035261;28;20045;-81
2023/10/09 08:43:53;;;;;;;24.35;6.88;;;;;;;17.24;58.64;97249.31;5034888;28;20049;-81
2023/10/09 08:46:22;;;;;;;23.45;6.43;;;;;;;17.30;58.67;97253.78;5035330;28;20505;-81
2023/10/09 08:48:51;;;;;;;24.30;6.40;;;;;;;17.34;58.22;97248.91;5034767;28;20056;-81
2023/10/09 08:51:19;;;;;;;19.88;5.20;;;;;;;17.38;57.81;97244.00;5034837;28;20049;-80
2023/10/09 08:53:47;;;;;;;30.02;5.70;;;;;;;17.42;57.13;97250.47;5034439;28;20060;-80
2023/10/09 08:56:21;;;;;;;18.52;5.50;;;;;;;17.46;56.75;97252.50;5033703;28;20081;-80
2023/10/09 08:58:52;;;;;;;17.50;5.07;;;;;;;17.50;56.53;97253.69;5034204;28;20072;-80
2023/10/09 09:01:21;;;;;;;17.70;5.15;;;;;;;17.55;56.23;97250.41;5034513;28;20140;-81
2023/10/09 09:03:53;;;;;;;22.45;5.32;;;;;;;17.60;56.37;97253.25;5033736;28;20062;-80
2023/10/09 09:06:24;;;;;;;19.00;4.72;;;;;;;17.65;56.64;97256.06;5034424;28;20053;-80
2023/10/09 09:08:54;;;;;;;19.83;4.30;;;;;;;17.69;56.41;97259.91;5034086;28;20045;-81
2023/10/09 09:11:29;;;;;;;20.40;4.93;;;;;;;17.75;56.50;97260.88;5153158;23;20057;-79
2023/10/09 09:14:12;;;;;;;20.98;4.90;;;;;;;17.81;56.32;97261.88;5029100;28;20076;-81
2023/10/09 09:16:48;;;;;;;;;;;;;;;17.86;56.19;97268.19;5030836;28;20057;-79
2023/10/09 09:19:18;;;;;;;18.45;5.13;;;;;;;17.89;54.93;97266.94;5014356;28;20400;-79
2023/10/09 09:21:54;;;;;;;23.88;5.90;;;;;;;17.91;55.10;97270.19;5030632;28;20104;-79
2023/10/09 09:24:31;;;;;;;15.30;4.93;;;;;;;17.94;54.89;97269.75;5033541;28;20046;-79
2023/10/09 09:27:12;;;;;;;16.17;4.38;;;;;;;17.98;55.15;97270.94;5033171;28;20053;-79
2023/10/09 09:29:52;;;;;;;20.48;5.68;;;;;;;18.04;54.21;97267.47;5033280;28;20055;-79
2023/10/09 09:32:29;;;;;;;18.00;3.90;;;;;;;18.09;53.71;97267.63;5033350;28;20144;-79
2023/10/09 09:35:01;;;;;;;19.25;4.78;;;;;;;18.17;53.87;97278.94;5038961;28;20059;-80
2023/10/09 09:37:30;;;;;;;13.68;4.30;;;;;;;18.24;53.27;97271.78;5052646;28;20060;-80
2023/10/09 09:40:00;;;;;;;11.32;3.85;;;;;;;18.28;53.34;97275.63;5052296;28;20056;-81
2023/10/09 09:42:31;;;;;;;15.00;4.22;;;;;;;18.32;53.27;97280.28;5052660;28;20053;-81
2023/10/09 09:45:01;;;;;;;15.45;3.88;;;;;;;18.39;52.62;97277.56;5053681;28;20336;-80
2023/10/09 09:47:30;;;;;;;19.27;4.65;;;;;;;18.43;52.27;97284.06;5036851;28;20112;-80
2023/10/09 09:50:11;;;;;;;16.33;3.97;;;;;;;18.48;52.30;97276.28;5034682;28;20045;-80
2023/10/09 09:52:39;;;;;;;13.27;3.38;;;;;;;18.54;52.08;97285.16;5033859;28;20053;-79
2023/10/09 09:55:14;;;;;;;13.63;3.40;;;;;;;18.61;51.99;97285.13;5033391;28;20432;-80
2023/10/09 09:57:45;;;;;;;17.25;4.57;;;;;;;18.64;51.89;97280.22;5033771;28;20132;-80
2023/10/09 10:00:29;;;;;;;10.20;4.00;;;;;;;18.69;51.47;97288.31;5033855;28;20045;-80
2023/10/09 10:03:06;;;;;;;13.55;4.22;;;;;;;18.77;51.17;97283.78;5033654;28;20053;-79
2023/10/09 10:05:37;;;;;;;14.07;3.50;;;;;;;18.82;51.47;97292.69;5033998;28;20055;-81
2023/10/09 10:08:12;;;;;;;23.17;3.78;;;;;;;18.86;51.48;97290.44;5034540;28;20127;-80
2023/10/09 10:10:49;;;;;;;17.92;4.65;;;;;;;18.92;51.20;97297.50;5034212;28;20132;-80
2023/10/09 10:13:23;;;;;;;14.88;3.75;;;;;;;19.01;50.87;97295.38;5033970;28;20599;-80
2023/10/09 10:16:13;;;;;;;21.42;4.68;;;;;;;19.12;50.79;97286.72;5034013;28;20104;-80
2023/10/09 10:18:59;;;;;;;18.45;4.20;;;;;;;19.23;50.44;97278.06;5034157;28;20149;-80
2023/10/09 10:21:41;;;;;;;16.42;3.75;;;;;;;19.31;50.11;97283.06;5038108;28;20082;-82
2023/10/09 10:24:52;;;;;;;16.80;4.32;;;;;;;19.43;50.05;97279.66;5041080;28;20113;-80
2023/10/09 10:27:26;;;;;;;16.05;3.92;;;;;;;19.51;50.06;97277.53;5036241;28;20053;-82
2023/10/09 10:30:33;;;;;;;18.58;4.22;;;;;;;19.61;49.76;97274.34;5035852;28;20046;-81
2023/10/09 10:33:15;;;;;;;20.80;4.70;;;;;;;19.72;49.54;97271.00;5035755;28;20119;-81
2023/10/09 10:35:47;;;;;;;16.58;3.72;;;;;;;19.87;49.57;97269.78;5035251;28;20050;-80
2023/10/09 10:38:36;;;;;;;12.38;4.20;;;;;;;19.97;49.25;97262.09;5035745;28;20045;-81
2023/10/09 10:41:17;;;;;;;20.15;5.22;;;;;;;20.05;49.70;97260.97;5038831;28;20052;-81
2023/10/09 10:44:00;;;;;;;22.45;4.57;;;;;;;20.08;49.36;97255.25;5038548;28;20489;-81
2023/10/09 10:46:32;;;;;;;16.20;3.95;;;;;;;20.13;49.10;97261.44;5039151;28;20111;-80
2023/10/09 10:49:10;;;;;;;17.43;4.20;;;;;;;20.17;48.70;97259.16;5039715;28;20059;-80
2023/10/09 10:51:38;;;;;;;14.45;3.95;;;;;;;20.19;48.62;97256.31;5039031;28;20049;-80
2023/10/09 10:56:57;;;;;;;16.63;3.60;;;;;;;20.21;48.22;97267.47;5038939;28;20053;-80
2023/10/09 10:59:26;;;;;;;20.33;4.75;;;;;;;20.22;48.14;97264.59;5038929;28;20049;-80
2023/10/09 11:02:13;;;;;;;12.98;3.70;;;;;;;20.24;48.24;97272.31;5038772;28;20076;-80
2023/10/09 11:04:43;;;;;;;11.13;3.83;;;;;;;20.26;47.82;97270.25;5038245;28;20053;-80
2023/10/09 11:07:12;;;;;;;23.95;4.32;;;;;;;20.26;47.47;97263.09;5039047;28;20113;-80
2023/10/09 11:10:07;;;;;;;17.77;4.35;;;;;;;20.28;47.35;97262.88;5038357;28;20141;-80
2023/10/09 11:12:55;;;;;;;16.13;3.80;;;;;;;20.27;46.99;97255.94;5038208;28;20141;-80
2023/10/09 11:15:37;;;;;;;14.23;4.18;;;;;;;20.25;46.92;97258.06;5037996;28;20086;-81
2023/10/09 11:18:07;;;;;;;16.08;3.80;;;;;;;20.25;46.93;97252.75;5038911;28;20563;-80
2023/10/09 11:20:36;;;;;;;16.55;3.58;;;;;;;20.24;46.59;97256.41;5042736;28;20046;-83
2023/10/09 11:23:15;;;;;;;21.75;3.88;;;;;;;20.23;46.53;97254.81;5057254;28;20029;-82
2023/10/09 11:25:50;;;;;;;27.90;3.80;;;;;;;20.23;46.61;97246.88;5052476;28;20060;-81
2023/10/09 11:28:42;;;;;;;19.13;3.58;;;;;;;20.23;46.53;97252.16;5041158;28;20120;-81
2023/10/09 11:31:12;;;;;;;12.25;3.45;;;;;;;20.22;46.53;97254.00;5038905;28;20069;-81
2023/10/09 11:33:45;;;;;;;18.45;4.15;;;;;;;20.23;46.14;97255.63;5038014;28;20060;-81
2023/10/09 11:36:13;;;;;;;22.00;4.10;;;;;;;20.24;46.56;97254.56;5038608;28;20057;-80
2023/10/09 11:38:45;;;;;;;18.85;4.60;;;;;;;20.26;46.29;97259.66;5038574;28;20485;-79
2023/10/09 11:41:23;;;;;;;21.10;5.38;;;;;;;20.27;46.19;97274.50;5038003;28;20568;-80
2023/10/09 11:43:54;;;;;;;21.65;4.55;;;;;;;20.30;46.37;97279.34;5038062;28;20124;-81
2023/10/09 11:46:40;;;;;;;23.23;3.13;;;;;;;20.29;46.34;97273.25;5038802;28;20053;-80
2023/10/09 11:49:44;;;;;;;21.73;4.03;;;;;;;20.27;46.42;97272.69;5038034;28;20080;-81
2023/10/09 11:54:57;;;;;;;16.23;4.25;;;;;;;20.26;46.79;97267.59;5043767;28;20057;-81
2023/10/09 11:57:31;;;;;;;17.10;3.78;;;;;;;20.26;46.75;97246.41;5039038;28;20125;-81
2023/10/09 12:00:00;;;;;;;15.65;4.03;;;;;;;20.26;46.84;97239.25;5037965;28;20081;-82
2023/10/09 12:02:28;;;;;;;23.10;4.30;;;;;;;20.25;46.86;97248.25;5038568;28;20051;-81
2023/10/09 12:04:56;;;;;;;14.30;4.03;;;;;;;20.24;47.85;97240.53;5038416;28;20049;-81
2023/10/09 12:07:25;;;;;;;19.17;4.55;;;;;;;20.24;48.73;97245.81;5038211;28;20057;-81
2023/10/09 12:09:56;;;;;;;20.38;4.50;;;;;;;20.23;49.06;97238.94;5037844;28;20420;-81
2023/10/09 12:12:26;;;;;;;17.90;3.97;;;;;;;20.21;48.82;97230.41;5045675;28;20053;-83
2023/10/09 12:14:55;;;;;;;16.75;4.05;;;;;;;20.20;49.76;97239.38;5058366;28;20050;-82
2023/10/09 12:17:25;;;;;;;17.40;3.90;;;;;;;20.19;49.77;97233.25;5057583;28;20075;-81
2023/10/09 12:19:56;;;;;;;16.98;4.18;;;;;;;20.19;50.19;97232.47;5038367;28;20060;-81
2023/10/09 12:22:26;;;;;;;20.45;4.95;;;;;;;20.19;50.60;97222.66;5038465;28;20136;-81
2023/10/09 12:24:54;;;;;;;14.25;4.57;;;;;;;20.19;50.74;97216.56;5037428;28;20053;-81
2023/10/09 12:27:22;;;;;;;13.40;3.65;;;;;;;20.20;50.56;97224.28;5038205;28;20077;-81
2023/10/09 12:29:50;;;;;;;15.30;4.60;;;;;;;20.22;51.10;97219.56;5041054;28;20053;-82
2023/10/09 12:32:20;;;;;;;26.13;4.68;;;;;;;20.26;51.15;97222.56;5047330;28;20053;-82
2023/10/09 12:34:50;;;;;;;14.52;4.53;;;;;;;20.30;50.74;97227.19;5038646;28;20053;-81
2023/10/09 12:37:20;;;;;;;18.30;4.07;;;;;;;20.35;50.89;97215.88;5038104;28;20081;-81
2023/10/09 12:39:51;;;;;;;26.42;4.50;;;;;;;20.39;50.87;97201.16;5037537;28;20099;-81
2023/10/09 12:42:23;;;;;;;25.13;4.68;;;;;;;20.47;50.31;97195.50;5037479;28;20081;-81
2023/10/09 12:44:51;;;;;;;18.02;5.20;;;;;;;20.56;50.25;97190.69;5036678;28;20583;-80
2023/10/09 12:47:20;;;;;;;13.68;3.97;;;;;;;20.67;49.92;97186.44;5036300;28;20085;-81
2023/10/09 12:49:49;;;;;;;19.80;4.80;;;;;;;20.78;49.60;97173.16;5036171;28;20108;-81
2023/10/09 12:52:16;;;;;;;17.08;4.30;;;;;;;20.91;49.22;97163.34;5035887;28;20077;-81
2023/10/09 12:54:46;;;;;;;15.82;4.40;;;;;;;21.05;49.05;97161.25;5036374;28;20053;-81
2023/10/09 12:57:14;;;;;;;23.67;4.35;;;;;;;21.15;49.05;97150.84;5036038;28;20055;-81
2023/10/09 12:59:45;;;;;;;16.40;3.63;;;;;;;21.22;47.65;97146.19;5036095;28;20057;-81
2023/10/09 13:02:27;;;;;;;16.30;3.78;;;;;;;21.26;47.41;97142.03;5035056;28;20045;-80
2023/10/09 13:04:59;;;;;;;13.00;4.00;;;;;;;21.29;47.25;97141.53;5037046;28;20056;-81
2023/10/09 13:07:27;;;;;;;11.20;3.35;;;;;;;21.31;46.98;97149.28;5036307;28;20052;-80
2023/10/09 14:12:29;;;;;;;19.75;4.18;;;;;;;21.88;43.46;97135.16;6173619;22;1186484;-80
2023/10/09 14:14:57;;;;;;;22.27;4.40;;;;;;;21.92;42.79;97120.38;6195226;23;20020;-80
2023/10/09 14:17:25;;;;;;;16.65;4.32;;;;;;;21.98;43.23;97133.47;6196120;23;20363;-79
2023/10/09 14:19:56;;;;;;;18.63;5.53;;;;;;;22.01;41.96;97130.31;6195320;23;20067;-80